Point Vicente — WDB9763 — position and weather

sailwx.info

Track history (hours):
 
Tides and Currents Weather Stations Pressure Air Temp Water Temp Dewpoint Dewpoint Depression Visibility Wind Speed Wind Dir Waves Ship Positions

Point Vicente

Owner: Foss Maritime Company, Seattle, WA. More information available from US FCC via Universal Licensing System and Coast Guard Vessel Documentation Center.

Last reported at 2014-Oct-31 16:30 UTC. Time now 2014-Oct-31 17:12 UTC.
Position N 38°04' W 122°12'.

Length 32 m; draft 4.3 m.

Type: Tug. MMSI: 366982330.

Date/timePositionNaut miles runAvg speedWind from/ knotsBaromVisibWave heightAir tempDewpointWater temp
2014-Oct-31 16:30N 38°04' W 122°12'14 6.1
2014-Oct-31 14:11N 38°03' W 121°54'11 2.1
2014-Oct-31 09:10N 38°02' W 122°08'3 4.7
2014-Oct-31 08:32N 38°03' W 122°11'4 4.5
2014-Oct-31 07:34N 38°03' W 122°17'4 4.4
2014-Oct-31 06:34N 38°02' W 122°22'5 4.8
2014-Oct-31 05:33N 37°58' W 122°26'3 2.8
2014-Oct-31 04:34N 37°55' W 122°24'0 0.0
2014-Oct-31 03:34N 37°55' W 122°25'0 0.0
2014-Oct-31 02:34N 37°55' W 122°25'0 0.0
2014-Oct-31 01:34N 37°55' W 122°25'0 0.0
2014-Oct-31 00:33N 37°55' W 122°25'0 0.0
2014-Oct-30 23:34N 37°55' W 122°25'0 0.1
2014-Oct-30 22:34N 37°55' W 122°24'4 4.2
2014-Oct-30 21:33N 37°59' W 122°25'7 7.1
2014-Oct-30 20:34N 38°03' W 122°18'18 8.0
2014-Oct-30 18:15N 38°03' W 121°54'2 0.7
2014-Oct-30 15:33N 38°04' W 121°52'15 7.4
2014-Oct-30 13:34N 38°03' W 122°11'8 7.8
2014-Oct-30 12:33N 38°02' W 122°21'7 7.0
2014-Oct-30 11:34N 37°56' W 122°26'2 1.5
2014-Oct-30 10:34N 37°55' W 122°24'0 0.1
2014-Oct-30 09:33N 37°55' W 122°25'4 4.1
2014-Oct-30 08:33N 37°59' W 122°25'9 8.7
2014-Oct-30 07:33N 38°04' W 122°16'5 0.8
2014-Oct-30 01:32N 38°02' W 122°10'7 7.1
2014-Oct-30 00:33N 38°03' W 122°18'7 6.8
2014-Oct-29 23:33N 37°59' W 122°25'4 3.7
2014-Oct-29 22:33N 37°55' W 122°24'4 3.8
2014-Oct-29 21:33N 37°59' W 122°25'7 6.6
2014-Oct-29 20:33N 38°03' W 122°19'8 7.9
2014-Oct-29 19:33N 38°02' W 122°09'10 7.8
2014-Oct-29 18:18N 38°03' W 121°56'4 2.0
2014-Oct-29 16:14N 38°04' W 121°51'1 1.4
2014-Oct-29 15:25N 38°04' W 121°52'6 7.0
2014-Oct-29 14:32N 38°04' W 122°00'7 6.9
2014-Oct-29 13:33N 38°02' W 122°09'7 7.2
2014-Oct-29 12:33N 38°03' W 122°18'7 7.0
2014-Oct-29 11:33N 37°59' W 122°25'4 3.8
2014-Oct-29 10:33N 37°56' W 122°25'0 0.0
2014-Oct-29 09:33N 37°56' W 122°25'0 0.0
2014-Oct-29 08:33N 37°56' W 122°25'0 0.2
2014-Oct-29 07:33N 37°55' W 122°25'2 2.1
2014-Oct-29 06:33N 37°57' W 122°26'9 8.7
2014-Oct-29 05:33N 38°03' W 122°18'9 9.2
2014-Oct-29 04:33N 38°03' W 122°06'9 8.7
2014-Oct-29 03:33N 38°03' W 121°55'3 2.9
2014-Oct-29 02:31N 38°04' W 121°51'2 0.6
2014-Oct-28 23:31N 38°03' W 121°53'14 6.8
2014-Oct-28 21:29N 38°03' W 122°11'6 6.5
2014-Oct-28 20:33N 38°03' W 122°18'6 6.4
2014-Oct-28 19:33N 37°59' W 122°25'4 4.1
2014-Oct-28 18:33N 37°55' W 122°24'5 5.4
2014-Oct-28 17:33N 38°01' W 122°24'9 8.7
2014-Oct-28 16:30N 38°04' W 122°12'8 7.8
2014-Oct-28 15:28N 38°04' W 122°02'7 7.3
2014-Oct-28 14:33N 38°03' W 121°54'2 1.2
2014-Oct-28 12:31N 38°04' W 121°51'13 6.5
2014-Oct-28 10:30N 38°02' W 122°08'7 7.3
2014-Oct-28 09:33N 38°03' W 122°16'7 7.4
2014-Oct-28 08:33N 37°60' W 122°25'5 4.6
2014-Oct-28 07:33N 37°55' W 122°24'2 1.9
2014-Oct-28 06:31N 37°54' W 122°22'0 0.0
2014-Oct-28 05:31N 37°54' W 122°22'0 0.0
2014-Oct-28 04:31N 37°54' W 122°22'0 0.0
2014-Oct-28 03:31N 37°54' W 122°22'0 0.0
2014-Oct-28 02:31N 37°54' W 122°22'0 0.0
2014-Oct-28 01:31N 37°54' W 122°22'0 0.0
2014-Oct-28 00:31N 37°54' W 122°22'0 0.0
2014-Oct-27 23:31N 37°54' W 122°22'0 0.0
2014-Oct-27 22:31N 37°54' W 122°22'0 0.0
2014-Oct-27 21:31N 37°54' W 122°22'0 0.0
2014-Oct-27 20:32N 37°54' W 122°22'0 0.0
2014-Oct-27 19:32N 37°54' W 122°22'0 0.0
2014-Oct-27 18:32N 37°54' W 122°22'5 4.7
2014-Oct-27 17:33N 37°58' W 122°26'4 4.3
2014-Oct-27 16:33N 38°01' W 122°23'9 8.6
2014-Oct-27 15:33N 38°03' W 122°12'8 7.2
2014-Oct-27 14:30N 38°04' W 122°02'6 6.7
2014-Oct-27 13:33N 38°03' W 121°54'2 1.2
2014-Oct-27 11:33N 38°04' W 121°52'15 7.0
2014-Oct-27 09:25N 38°03' W 122°10'6 7.2
2014-Oct-27 08:34N 38°03' W 122°18'7 7.2
2014-Oct-27 07:33N 37°59' W 122°26'1 0.7
2014-Oct-27 06:34N 37°58' W 122°26'4 4.4
2014-Oct-27 05:34N 38°01' W 122°22'9 9.2
2014-Oct-27 04:33N 38°03' W 122°11'12 9.1
2014-Oct-27 03:14N 38°03' W 121°55'2 0.5
2014-Oct-27 00:12N 38°03' W 121°53'14 7.1
2014-Oct-26 22:17N 38°03' W 122°11'6 7.9
2014-Oct-26 21:34N 38°03' W 122°18'7 7.2
2014-Oct-26 20:33N 37°59' W 122°25'3 3.3
2014-Oct-26 19:33N 37°56' W 122°25'1 0.8
2014-Oct-26 18:33N 37°56' W 122°26'4 4.3
2014-Oct-26 17:33N 38°00' W 122°24'8 7.8
2014-Oct-26 16:33N 38°04' W 122°15'8 8.4
2014-Oct-26 15:33N 38°03' W 122°05'8 8.1
2014-Oct-26 14:33N 38°03' W 121°54'3 0.7
2014-Oct-26 11:10N 38°04' W 121°52'13 6.8
2014-Oct-26 09:16N 38°03' W 122°08'5 6.9
2014-Oct-26 08:33N 38°04' W 122°14'7 7.2
2014-Oct-26 07:33N 38°01' W 122°23'6 6.3
2014-Oct-26 06:33N 37°55' W 122°25'0 0.3
2014-Oct-26 05:33N 37°55' W 122°25'4 3.8
2014-Oct-26 04:31N 37°59' W 122°26'0 0.0
2014-Oct-26 03:33N 37°59' W 122°26'6 5.9
2014-Oct-26 02:33N 38°02' W 122°20'10 9.5
2014-Oct-26 01:33N 38°02' W 122°08'11 8.4
2014-Oct-26 00:15N 38°03' W 121°54'11 1.8
2014-Oct-25 18:05N 38°02' W 122°08'3 6.0
2014-Oct-25 17:31N 38°03' W 122°12'6 5.8
2014-Oct-25 16:33N 38°03' W 122°19'6 6.2
2014-Oct-25 15:33N 37°59' W 122°25'4 3.5
2014-Oct-25 14:31N 37°55' W 122°25'0 0.4
2014-Oct-25 13:32N 37°55' W 122°25'4 3.8
2014-Oct-25 12:33N 37°59' W 122°26'0 0.2
2014-Oct-25 11:33N 37°59' W 122°26'0 0.0
2014-Oct-25 10:33N 37°59' W 122°26'0 0.0
2014-Oct-25 09:33N 37°59' W 122°26'0 0.0
2014-Oct-25 08:33N 37°59' W 122°26'0 0.0
2014-Oct-25 07:33N 37°59' W 122°26'0 0.0
2014-Oct-25 06:33N 37°59' W 122°26'0 0.0
2014-Oct-25 05:33N 37°59' W 122°26'0 0.0
2014-Oct-25 04:33N 37°59' W 122°26'0 0.1
2014-Oct-25 03:33N 37°59' W 122°26'0 0.0
2014-Oct-25 02:34N 37°59' W 122°26'7 6.9
2014-Oct-25 01:34N 38°03' W 122°19'19 8.2
2014-Oct-24 23:12N 38°03' W 121°54'11 2.4
2014-Oct-24 18:33N 38°02' W 122°09'6 5.8
2014-Oct-24 17:33N 38°04' W 122°16'7 6.7
2014-Oct-24 16:33N 38°01' W 122°24'5 5.3
2014-Oct-24 15:33N 37°56' W 122°25'3 2.5
2014-Oct-24 14:33N 37°58' W 122°26'1 1.3
2014-Oct-24 13:31N 37°59' W 122°26'0 0.0
2014-Oct-24 12:31N 37°59' W 122°26'0 0.0
2014-Oct-24 11:31N 37°59' W 122°26'0 0.0
2014-Oct-24 10:31N 37°59' W 122°26'0 0.1
2014-Oct-24 09:31N 37°59' W 122°26'0 0.1
2014-Oct-24 08:31N 37°59' W 122°26'0 0.0
2014-Oct-24 07:31N 37°59' W 122°26'0 0.0
2014-Oct-24 06:31N 37°59' W 122°26'0 0.0
2014-Oct-24 05:31N 37°59' W 122°26'0 0.0
2014-Oct-24 04:31N 37°59' W 122°26'0 0.1
2014-Oct-24 03:31N 37°59' W 122°26'5 5.6
2014-Oct-24 02:33N 38°02' W 122°21'9 9.4
2014-Oct-24 01:33N 38°02' W 122°09'11 9.0
2014-Oct-24 00:17N 38°03' W 121°54'1 0.3
2014-Oct-23 22:05N 38°03' W 121°53'12 7.5
2014-Oct-23 20:30N 38°02' W 122°08'7 7.3
2014-Oct-23 19:33N 38°03' W 122°17'7 7.3
2014-Oct-23 18:33N 37°59' W 122°25'3 3.4
2014-Oct-23 17:34N 37°56' W 122°26'3 3.0
2014-Oct-23 16:33N 37°59' W 122°26'0 0.0
2014-Oct-23 15:24N 37°59' W 122°26'0 0.0
2014-Oct-23 13:24N 37°59' W 122°26'0 0.0
2014-Oct-23 12:30N 37°59' W 122°26'0 0.0
2014-Oct-23 11:30N 37°59' W 122°26'0 0.0
2014-Oct-23 10:33N 37°59' W 122°26'0 0.0
2014-Oct-23 09:33N 37°59' W 122°26'0 0.1
2014-Oct-23 08:33N 37°59' W 122°26'0 0.1
2014-Oct-23 07:33N 37°59' W 122°26'0 0.0
2014-Oct-23 06:33N 37°59' W 122°26'0 0.0
2014-Oct-23 05:33N 37°59' W 122°26'0 0.0
2014-Oct-23 04:33N 37°59' W 122°26'0 0.0
2014-Oct-23 03:33N 37°59' W 122°26'0 0.1
2014-Oct-23 02:33N 37°59' W 122°26'4 4.3
2014-Oct-23 01:33N 37°55' W 122°25'1 0.7
2014-Oct-23 00:33N 37°56' W 122°25'4 3.8
2014-Oct-22 23:34N 37°59' W 122°26'0 0.3
2014-Oct-22 22:32N 37°59' W 122°26'0 0.0
2014-Oct-22 21:32N 37°59' W 122°26'0 0.1
2014-Oct-22 20:32N 37°59' W 122°26'0 0.0
2014-Oct-22 19:32N 37°59' W 122°26'0 0.0
2014-Oct-22 18:32N 37°59' W 122°26'0 0.0
2014-Oct-22 17:32N 37°59' W 122°26'0 0.0
2014-Oct-22 16:32N 37°59' W 122°26'0 0.0
2014-Oct-22 15:32N 37°59' W 122°26'0 0.1
2014-Oct-22 14:33N 37°59' W 122°26'0 0.0
2014-Oct-22 13:33N 37°59' W 122°26'0 0.0
2014-Oct-22 12:33N 37°59' W 122°26'0 0.0
2014-Oct-22 11:33N 37°59' W 122°26'8 7.8
2014-Oct-22 10:33N 38°03' W 122°18'7 7.4
2014-Oct-22 09:33N 38°02' W 122°09'14 3.2
2014-Oct-22 05:18N 38°04' W 121°52'4 4.2
2014-Oct-22 04:28N 38°03' W 121°56'6 4.8
2014-Oct-22 03:18N 38°04' W 122°03'4 4.6
2014-Oct-22 02:27N 38°02' W 122°07'3 3.8
2014-Oct-22 01:33N 38°03' W 122°11'4 4.0
2014-Oct-22 00:33N 38°03' W 122°17'4 3.9
2014-Oct-21 23:33N 38°02' W 122°21'4 4.3
2014-Oct-21 22:33N 37°59' W 122°25'4 3.7
2014-Oct-21 21:33N 37°56' W 122°25'0 0.2
2014-Oct-21 20:32N 37°55' W 122°25'0 0.0
2014-Oct-21 19:33N 37°55' W 122°25'3 2.9
2014-Oct-21 18:33N 37°58' W 122°26'1 1.1
2014-Oct-21 17:32N 37°59' W 122°27'  
Track history (hours):
 
Tides and Currents Weather Stations Pressure Air Temp Water Temp Dewpoint Dewpoint Depression Visibility Wind Speed Wind Dir Waves Ship Positions

Point Vicente

Owner: Foss Maritime Company, Seattle, WA. More information available from US FCC via Universal Licensing System and Coast Guard Vessel Documentation Center.

Last reported at 2014-Oct-31 16:30 UTC. Time now 2014-Oct-31 17:12 UTC.
Position N 38°04' W 122°12'.

Length 32 m; draft 4.3 m.

Type: Tug. MMSI: 366982330.

Date/timePositionNaut miles runAvg speedWind from/ knotsBaromVisibWave heightAir tempDewpointWater temp
2014-Oct-31 16:30N 38°04' W 122°12'14 6.1
2014-Oct-31 14:11N 38°03' W 121°54'11 2.1
2014-Oct-31 09:10N 38°02' W 122°08'3 4.7
2014-Oct-31 08:32N 38°03' W 122°11'4 4.5
2014-Oct-31 07:34N 38°03' W 122°17'4 4.4
2014-Oct-31 06:34N 38°02' W 122°22'5 4.8
2014-Oct-31 05:33N 37°58' W 122°26'3 2.8
2014-Oct-31 04:34N 37°55' W 122°24'0 0.0
2014-Oct-31 03:34N 37°55' W 122°25'0 0.0
2014-Oct-31 02:34N 37°55' W 122°25'0 0.0
2014-Oct-31 01:34N 37°55' W 122°25'0 0.0
2014-Oct-31 00:33N 37°55' W 122°25'0 0.0
2014-Oct-30 23:34N 37°55' W 122°25'0 0.1
2014-Oct-30 22:34N 37°55' W 122°24'4 4.2
2014-Oct-30 21:33N 37°59' W 122°25'7 7.1
2014-Oct-30 20:34N 38°03' W 122°18'18 8.0
2014-Oct-30 18:15N 38°03' W 121°54'2 0.7
2014-Oct-30 15:33N 38°04' W 121°52'15 7.4
2014-Oct-30 13:34N 38°03' W 122°11'8 7.8
2014-Oct-30 12:33N 38°02' W 122°21'7 7.0
2014-Oct-30 11:34N 37°56' W 122°26'2 1.5
2014-Oct-30 10:34N 37°55' W 122°24'0 0.1
2014-Oct-30 09:33N 37°55' W 122°25'4 4.1
2014-Oct-30 08:33N 37°59' W 122°25'9 8.7
2014-Oct-30 07:33N 38°04' W 122°16'5 0.8
2014-Oct-30 01:32N 38°02' W 122°10'7 7.1
2014-Oct-30 00:33N 38°03' W 122°18'7 6.8
2014-Oct-29 23:33N 37°59' W 122°25'4 3.7
2014-Oct-29 22:33N 37°55' W 122°24'4 3.8
2014-Oct-29 21:33N 37°59' W 122°25'7 6.6
2014-Oct-29 20:33N 38°03' W 122°19'8 7.9
2014-Oct-29 19:33N 38°02' W 122°09'10 7.8
2014-Oct-29 18:18N 38°03' W 121°56'4 2.0
2014-Oct-29 16:14N 38°04' W 121°51'1 1.4
2014-Oct-29 15:25N 38°04' W 121°52'6 7.0
2014-Oct-29 14:32N 38°04' W 122°00'7 6.9
2014-Oct-29 13:33N 38°02' W 122°09'7 7.2
2014-Oct-29 12:33N 38°03' W 122°18'7 7.0
2014-Oct-29 11:33N 37°59' W 122°25'4 3.8
2014-Oct-29 10:33N 37°56' W 122°25'0 0.0
2014-Oct-29 09:33N 37°56' W 122°25'0 0.0
2014-Oct-29 08:33N 37°56' W 122°25'0 0.2
2014-Oct-29 07:33N 37°55' W 122°25'2 2.1
2014-Oct-29 06:33N 37°57' W 122°26'9 8.7
2014-Oct-29 05:33N 38°03' W 122°18'9 9.2
2014-Oct-29 04:33N 38°03' W 122°06'9 8.7
2014-Oct-29 03:33N 38°03' W 121°55'3 2.9
2014-Oct-29 02:31N 38°04' W 121°51'2 0.6
2014-Oct-28 23:31N 38°03' W 121°53'14 6.8
2014-Oct-28 21:29N 38°03' W 122°11'6 6.5
2014-Oct-28 20:33N 38°03' W 122°18'6 6.4
2014-Oct-28 19:33N 37°59' W 122°25'4 4.1
2014-Oct-28 18:33N 37°55' W 122°24'5 5.4
2014-Oct-28 17:33N 38°01' W 122°24'9 8.7
2014-Oct-28 16:30N 38°04' W 122°12'8 7.8
2014-Oct-28 15:28N 38°04' W 122°02'7 7.3
2014-Oct-28 14:33N 38°03' W 121°54'2 1.2
2014-Oct-28 12:31N 38°04' W 121°51'13 6.5
2014-Oct-28 10:30N 38°02' W 122°08'7 7.3
2014-Oct-28 09:33N 38°03' W 122°16'7 7.4
2014-Oct-28 08:33N 37°60' W 122°25'5 4.6
2014-Oct-28 07:33N 37°55' W 122°24'2 1.9
2014-Oct-28 06:31N 37°54' W 122°22'0 0.0
2014-Oct-28 05:31N 37°54' W 122°22'0 0.0
2014-Oct-28 04:31N 37°54' W 122°22'0 0.0
2014-Oct-28 03:31N 37°54' W 122°22'0 0.0
2014-Oct-28 02:31N 37°54' W 122°22'0 0.0
2014-Oct-28 01:31N 37°54' W 122°22'0 0.0
2014-Oct-28 00:31N 37°54' W 122°22'0 0.0
2014-Oct-27 23:31N 37°54' W 122°22'0 0.0
2014-Oct-27 22:31N 37°54' W 122°22'0 0.0
2014-Oct-27 21:31N 37°54' W 122°22'0 0.0
2014-Oct-27 20:32N 37°54' W 122°22'0 0.0
2014-Oct-27 19:32N 37°54' W 122°22'0 0.0
2014-Oct-27 18:32N 37°54' W 122°22'5 4.7
2014-Oct-27 17:33N 37°58' W 122°26'4 4.3
2014-Oct-27 16:33N 38°01' W 122°23'9 8.6
2014-Oct-27 15:33N 38°03' W 122°12'8 7.2
2014-Oct-27 14:30N 38°04' W 122°02'6 6.7
2014-Oct-27 13:33N 38°03' W 121°54'2 1.2
2014-Oct-27 11:33N 38°04' W 121°52'15 7.0
2014-Oct-27 09:25N 38°03' W 122°10'6 7.2
2014-Oct-27 08:34N 38°03' W 122°18'7 7.2
2014-Oct-27 07:33N 37°59' W 122°26'1 0.7
2014-Oct-27 06:34N 37°58' W 122°26'4 4.4
2014-Oct-27 05:34N 38°01' W 122°22'9 9.2
2014-Oct-27 04:33N 38°03' W 122°11'12 9.1
2014-Oct-27 03:14N 38°03' W 121°55'2 0.5
2014-Oct-27 00:12N 38°03' W 121°53'14 7.1
2014-Oct-26 22:17N 38°03' W 122°11'6 7.9
2014-Oct-26 21:34N 38°03' W 122°18'7 7.2
2014-Oct-26 20:33N 37°59' W 122°25'3 3.3
2014-Oct-26 19:33N 37°56' W 122°25'1 0.8
2014-Oct-26 18:33N 37°56' W 122°26'4 4.3
2014-Oct-26 17:33N 38°00' W 122°24'8 7.8
2014-Oct-26 16:33N 38°04' W 122°15'8 8.4
2014-Oct-26 15:33N 38°03' W 122°05'8 8.1
2014-Oct-26 14:33N 38°03' W 121°54'3 0.7
2014-Oct-26 11:10N 38°04' W 121°52'13 6.8
2014-Oct-26 09:16N 38°03' W 122°08'5 6.9
2014-Oct-26 08:33N 38°04' W 122°14'7 7.2
2014-Oct-26 07:33N 38°01' W 122°23'6 6.3
2014-Oct-26 06:33N 37°55' W 122°25'0 0.3
2014-Oct-26 05:33N 37°55' W 122°25'4 3.8
2014-Oct-26 04:31N 37°59' W 122°26'0 0.0
2014-Oct-26 03:33N 37°59' W 122°26'6 5.9
2014-Oct-26 02:33N 38°02' W 122°20'10 9.5
2014-Oct-26 01:33N 38°02' W 122°08'11 8.4
2014-Oct-26 00:15N 38°03' W 121°54'11 1.8
2014-Oct-25 18:05N 38°02' W 122°08'3 6.0
2014-Oct-25 17:31N 38°03' W 122°12'6 5.8
2014-Oct-25 16:33N 38°03' W 122°19'6 6.2
2014-Oct-25 15:33N 37°59' W 122°25'4 3.5
2014-Oct-25 14:31N 37°55' W 122°25'0 0.4
2014-Oct-25 13:32N 37°55' W 122°25'4 3.8
2014-Oct-25 12:33N 37°59' W 122°26'0 0.2
2014-Oct-25 11:33N 37°59' W 122°26'0 0.0
2014-Oct-25 10:33N 37°59' W 122°26'0 0.0
2014-Oct-25 09:33N 37°59' W 122°26'0 0.0
2014-Oct-25 08:33N 37°59' W 122°26'0 0.0
2014-Oct-25 07:33N 37°59' W 122°26'0 0.0
2014-Oct-25 06:33N 37°59' W 122°26'0 0.0
2014-Oct-25 05:33N 37°59' W 122°26'0 0.0
2014-Oct-25 04:33N 37°59' W 122°26'0 0.1
2014-Oct-25 03:33N 37°59' W 122°26'0 0.0
2014-Oct-25 02:34N 37°59' W 122°26'7 6.9
2014-Oct-25 01:34N 38°03' W 122°19'19 8.2
2014-Oct-24 23:12N 38°03' W 121°54'11 2.4
2014-Oct-24 18:33N 38°02' W 122°09'6 5.8
2014-Oct-24 17:33N 38°04' W 122°16'7 6.7
2014-Oct-24 16:33N 38°01' W 122°24'5 5.3
2014-Oct-24 15:33N 37°56' W 122°25'3 2.5
2014-Oct-24 14:33N 37°58' W 122°26'1 1.3
2014-Oct-24 13:31N 37°59' W 122°26'0 0.0
2014-Oct-24 12:31N 37°59' W 122°26'0 0.0
2014-Oct-24 11:31N 37°59' W 122°26'0 0.0
2014-Oct-24 10:31N 37°59' W 122°26'0 0.1
2014-Oct-24 09:31N 37°59' W 122°26'0 0.1
2014-Oct-24 08:31N 37°59' W 122°26'0 0.0
2014-Oct-24 07:31N 37°59' W 122°26'0 0.0
2014-Oct-24 06:31N 37°59' W 122°26'0 0.0
2014-Oct-24 05:31N 37°59' W 122°26'0 0.0
2014-Oct-24 04:31N 37°59' W 122°26'0 0.1
2014-Oct-24 03:31N 37°59' W 122°26'5 5.6
2014-Oct-24 02:33N 38°02' W 122°21'9 9.4
2014-Oct-24 01:33N 38°02' W 122°09'11 9.0
2014-Oct-24 00:17N 38°03' W 121°54'1 0.3
2014-Oct-23 22:05N 38°03' W 121°53'12 7.5
2014-Oct-23 20:30N 38°02' W 122°08'7 7.3
2014-Oct-23 19:33N 38°03' W 122°17'7 7.3
2014-Oct-23 18:33N 37°59' W 122°25'3 3.4
2014-Oct-23 17:34N 37°56' W 122°26'3 3.0
2014-Oct-23 16:33N 37°59' W 122°26'0 0.0
2014-Oct-23 15:24N 37°59' W 122°26'0 0.0
2014-Oct-23 13:24N 37°59' W 122°26'0 0.0
2014-Oct-23 12:30N 37°59' W 122°26'0 0.0
2014-Oct-23 11:30N 37°59' W 122°26'0 0.0
2014-Oct-23 10:33N 37°59' W 122°26'0 0.0
2014-Oct-23 09:33N 37°59' W 122°26'0 0.1
2014-Oct-23 08:33N 37°59' W 122°26'0 0.1
2014-Oct-23 07:33N 37°59' W 122°26'0 0.0
2014-Oct-23 06:33N 37°59' W 122°26'0 0.0
2014-Oct-23 05:33N 37°59' W 122°26'0 0.0
2014-Oct-23 04:33N 37°59' W 122°26'0 0.0
2014-Oct-23 03:33N 37°59' W 122°26'0 0.1
2014-Oct-23 02:33N 37°59' W 122°26'4 4.3
2014-Oct-23 01:33N 37°55' W 122°25'1 0.7
2014-Oct-23 00:33N 37°56' W 122°25'4 3.8
2014-Oct-22 23:34N 37°59' W 122°26'0 0.3
2014-Oct-22 22:32N 37°59' W 122°26'0 0.0
2014-Oct-22 21:32N 37°59' W 122°26'0 0.1
2014-Oct-22 20:32N 37°59' W 122°26'0 0.0
2014-Oct-22 19:32N 37°59' W 122°26'0 0.0
2014-Oct-22 18:32N 37°59' W 122°26'0 0.0
2014-Oct-22 17:32N 37°59' W 122°26'0 0.0
2014-Oct-22 16:32N 37°59' W 122°26'0 0.0
2014-Oct-22 15:32N 37°59' W 122°26'0 0.1
2014-Oct-22 14:33N 37°59' W 122°26'0 0.0
2014-Oct-22 13:33N 37°59' W 122°26'0 0.0
2014-Oct-22 12:33N 37°59' W 122°26'0 0.0
2014-Oct-22 11:33N 37°59' W 122°26'8 7.8
2014-Oct-22 10:33N 38°03' W 122°18'7 7.4
2014-Oct-22 09:33N 38°02' W 122°09'14 3.2
2014-Oct-22 05:18N 38°04' W 121°52'4 4.2
2014-Oct-22 04:28N 38°03' W 121°56'6 4.8
2014-Oct-22 03:18N 38°04' W 122°03'4 4.6
2014-Oct-22 02:27N 38°02' W 122°07'3 3.8
2014-Oct-22 01:33N 38°03' W 122°11'4 4.0
2014-Oct-22 00:33N 38°03' W 122°17'4 3.9
2014-Oct-21 23:33N 38°02' W 122°21'4 4.3
2014-Oct-21 22:33N 37°59' W 122°25'4 3.7
2014-Oct-21 21:33N 37°56' W 122°25'0 0.2
2014-Oct-21 20:32N 37°55' W 122°25'0 0.0
2014-Oct-21 19:33N 37°55' W 122°25'3 2.9
2014-Oct-21 18:33N 37°58' W 122°26'1 1.1
2014-Oct-21 17:32N 37°59' W 122°27'  

Dump ship's entire track history